Time;durP1;ratioP1;P1;durP2;ratioP2;P2;SDS_P1;SDS_P2;PMS_P1;PMS_P2;Temp;Humidity;BMP_temperature;BMP_pressure;BME280_temperature;BME280_humidity;BME280_pressure;Samples;Min_cycle;Max_cycle;Signal;HPM_P1;HPM_P2
2022/07/17 00:01:16;;;;;;;15.43;14.83;;;20.60;17.40;;;;;;6218632;23;20190;-71
2022/07/17 00:04:30;;;;;;;14.77;14.07;;;20.50;17.80;;;;;;6218764;23;20151;-72
2022/07/17 00:06:31;;;;;;;14.17;13.60;;;20.70;17.40;;;;;;6229153;23;20179;-71
2022/07/17 00:08:57;;;;;;;14.90;14.20;;;21.00;17.00;;;;;;6218801;23;20387;-71
2022/07/17 00:11:22;;;;;;;15.50;14.70;;;21.20;16.70;;;;;;6218289;23;20166;-71
2022/07/17 00:13:48;;;;;;;14.87;14.20;;;21.30;16.30;;;;;;6245632;23;20175;-71
2022/07/17 00:16:14;;;;;;;15.23;14.43;;;21.30;16.40;;;;;;6218823;23;20148;-71
2022/07/17 00:18:40;;;;;;;13.90;13.40;;;21.30;16.30;;;;;;6218464;23;20197;-72
2022/07/17 00:21:05;;;;;;;14.77;13.73;;;21.40;16.10;;;;;;6218827;23;20152;-71
2022/07/17 00:23:31;;;;;;;14.90;14.30;;;21.30;16.20;;;;;;6218615;23;20205;-71
2022/07/17 00:25:59;;;;;;;15.33;14.70;;;21.30;16.30;;;;;;6218628;23;20151;-71
2022/07/17 00:28:25;;;;;;;15.10;14.40;;;21.30;16.40;;;;;;6218457;23;20408;-71
2022/07/17 00:30:51;;;;;;;15.23;14.40;;;21.30;16.40;;;;;;6218364;23;20382;-72
2022/07/17 00:33:17;;;;;;;15.47;14.67;;;21.40;16.40;;;;;;6218668;23;20156;-72
2022/07/17 00:35:42;;;;;;;14.80;14.23;;;21.40;16.30;;;;;;6218436;23;20160;-71
2022/07/17 00:38:10;;;;;;;14.77;14.07;;;21.40;16.30;;;;;;6218502;23;20183;-72
2022/07/17 00:40:35;;;;;;;15.23;14.43;;;21.40;16.20;;;;;;6218279;23;20159;-71
2022/07/17 00:43:01;;;;;;;16.13;15.10;;;21.40;16.50;;;;;;6245320;23;20366;-72
2022/07/17 00:45:29;;;;;;;15.90;15.00;;;21.00;17.50;;;;;;6218526;23;20158;-71
2022/07/17 00:48:02;;;;;;;15.77;14.87;;;20.60;18.10;;;;;;6218493;23;20157;-72
2022/07/17 00:50:39;;;;;;;15.23;14.53;;;20.50;18.70;;;;;;6218181;23;20378;-72
2022/07/17 00:53:06;;;;;;;14.40;13.80;;;20.70;17.90;;;;;;6218507;23;20370;-71
2022/07/17 00:55:36;;;;;;;15.63;14.73;;;20.80;17.50;;;;;;6245198;23;20408;-72
2022/07/17 00:58:04;;;;;;;14.43;13.93;;;20.90;17.40;;;;;;6218294;23;20722;-71
2022/07/17 01:00:30;;;;;;;16.57;15.10;;;21.00;17.20;;;;;;6217637;23;20435;-71
2022/07/17 01:02:56;;;;;;;15.40;14.70;;;21.10;17.20;;;;;;6218004;23;20377;-71
2022/07/17 01:05:23;;;;;;;14.43;13.73;;;21.10;17.10;;;;;;6218275;23;20410;-71
2022/07/17 01:07:50;;;;;;;15.03;14.23;;;21.20;16.90;;;;;;6245041;23;20405;-71
2022/07/17 01:10:17;;;;;;;15.20;14.50;;;21.20;16.80;;;;;;6218016;23;20382;-72
2022/07/17 01:12:43;;;;;;;14.77;14.17;;;21.20;17.00;;;;;;6218016;23;20402;-71
2022/07/17 01:15:10;;;;;;;14.80;14.20;;;21.20;17.00;;;;;;6218243;23;20461;-72
2022/07/17 01:17:39;;;;;;;14.80;14.20;;;21.20;16.80;;;;;;6218018;23;20429;-71
2022/07/17 01:20:10;;;;;;;14.70;14.10;;;21.20;16.60;;;;;;6217993;23;20409;-72
2022/07/17 01:22:42;;;;;;;15.17;14.60;;;21.00;16.80;;;;;;6218171;23;20363;-72
2022/07/17 01:25:09;;;;;;;15.23;14.47;;;21.10;17.00;;;;;;6218268;23;20456;-71
2022/07/17 01:27:36;;;;;;;14.87;14.23;;;21.00;17.10;;;;;;6218041;23;20436;-71
2022/07/17 01:30:02;;;;;;;15.50;14.80;;;21.00;17.20;;;;;;6218253;23;20390;-72
2022/07/17 01:32:33;;;;;;;15.47;14.57;;;21.00;17.00;;;;;;6244788;23;20402;-72
2022/07/17 01:34:59;;;;;;;15.33;14.63;;;21.00;17.10;;;;;;6217991;23;20412;-71
2022/07/17 01:37:25;;;;;;;14.63;14.03;;;21.10;16.80;;;;;;6217867;23;20426;-72
2022/07/17 01:39:53;;;;;;;15.03;14.33;;;21.10;16.90;;;;;;6217947;23;20684;-71
2022/07/17 01:42:20;;;;;;;14.50;13.80;;;20.90;17.10;;;;;;6244714;23;20144;-72
2022/07/17 01:44:46;;;;;;;14.50;13.90;;;20.90;17.50;;;;;;6217946;23;20719;-72
2022/07/17 01:47:16;;;;;;;14.90;14.30;;;20.70;17.80;;;;;;6244808;23;20375;-71
2022/07/17 01:49:50;;;;;;;14.33;13.73;;;20.80;17.60;;;;;;6217931;23;20150;-71
2022/07/17 01:52:16;;;;;;;13.93;13.33;;;20.80;17.60;;;;;;6217821;23;20374;-71
2022/07/17 01:54:43;;;;;;;13.60;13.00;;;20.90;17.30;;;;;;6217985;23;20393;-72
2022/07/17 01:57:09;;;;;;;15.07;14.47;;;20.80;17.20;;;;;;6217834;23;20468;-71
2022/07/17 01:59:36;;;;;;;15.90;14.90;;;20.80;17.40;;;;;;6244802;23;20558;-72
2022/07/17 02:02:04;;;;;;;16.03;15.13;;;20.80;17.20;;;;;;6217665;23;20375;-72
2022/07/17 02:04:34;;;;;;;15.07;14.17;;;20.80;17.30;;;;;;6217774;23;20855;-72
2022/07/17 02:07:00;;;;;;;15.70;14.90;;;20.80;17.50;;;;;;6217819;23;20382;-71
2022/07/17 02:09:26;;;;;;;15.60;14.90;;;20.70;17.90;;;;;;6217778;23;20965;-71
2022/07/17 02:12:20;;;;;;;16.07;15.37;;;20.70;18.10;;;;;;6217412;23;20199;-72
2022/07/17 02:14:46;;;;;;;15.30;14.63;;;20.70;18.20;;;;;;6209822;23;20619;-72
2022/07/17 02:17:12;;;;;;;16.00;15.07;;;20.70;17.90;;;;;;6219738;23;20433;-72
2022/07/17 02:19:38;;;;;;;15.03;14.43;;;20.70;17.90;;;;;;6219850;23;20208;-72
2022/07/17 02:22:10;;;;;;;15.37;14.73;;;20.80;18.00;;;;;;6219574;23;20486;-71
2022/07/17 02:24:35;;;;;;;15.67;15.07;;;20.80;18.00;;;;;;6219771;23;20489;-72
2022/07/17 02:27:01;;;;;;;14.53;13.83;;;20.70;17.90;;;;;;6219729;23;20386;-71
2022/07/17 02:29:30;;;;;;;15.13;14.23;;;20.60;18.20;;;;;;6246550;23;20147;-72
2022/07/17 02:31:58;;;;;;;14.90;14.10;;;20.50;18.30;;;;;;6219529;23;20155;-72
2022/07/17 02:34:24;;;;;;;14.80;14.10;;;20.60;18.00;;;;;;6219593;23;20386;-71
2022/07/17 02:36:50;;;;;;;15.13;14.43;;;20.70;17.90;;;;;;6219592;23;20483;-71
2022/07/17 02:39:16;;;;;;;15.10;14.40;;;20.70;17.90;;;;;;6219692;23;20249;-72
2022/07/17 02:41:41;;;;;;;15.07;14.13;;;20.50;18.30;;;;;;6219343;23;20600;-72
2022/07/17 02:44:07;;;;;;;14.73;14.13;;;20.50;18.20;;;;;;6246496;23;20614;-71
2022/07/17 02:46:33;;;;;;;15.20;14.50;;;20.50;18.20;;;;;;6219555;23;20156;-72
2022/07/17 02:48:59;;;;;;;15.20;14.50;;;20.50;18.00;;;;;;6246414;23;20148;-71
2022/07/17 02:51:24;;;;;;;14.40;13.80;;;20.60;18.30;;;;;;6219193;23;20175;-71
2022/07/17 02:53:50;;;;;;;14.60;14.00;;;20.40;18.30;;;;;;6219493;23;20162;-72
2022/07/17 02:56:16;;;;;;;13.40;12.90;;;20.40;18.20;;;;;;6219521;23;20158;-71
2022/07/17 02:58:41;;;;;;;13.57;12.97;;;20.60;18.10;;;;;;6246276;23;20179;-72
2022/07/17 03:01:07;;;;;;;14.37;13.67;;;20.50;18.20;;;;;;6219121;23;20152;-71
2022/07/17 03:03:33;;;;;;;14.80;14.20;;;20.40;18.20;;;;;;6246314;23;20486;-71
2022/07/17 03:05:59;;;;;;;13.70;13.13;;;20.30;18.50;;;;;;6219468;23;20308;-72
2022/07/17 03:08:25;;;;;;;14.47;13.90;;;20.40;18.30;;;;;;6219753;23;20182;-71
2022/07/17 03:10:51;;;;;;;16.20;15.40;;;20.40;18.50;;;;;;6218997;23;20552;-72
2022/07/17 03:13:16;;;;;;;14.97;14.37;;;20.30;18.50;;;;;;6219393;23;20410;-71
2022/07/17 03:15:42;;;;;;;14.93;14.13;;;20.30;18.60;;;;;;6219325;23;20163;-71
2022/07/17 03:18:08;;;;;;;14.30;13.70;;;20.40;18.50;;;;;;6244808;23;20179;-72
2022/07/17 03:20:34;;;;;;;14.90;14.20;;;20.40;18.50;;;;;;6218772;23;20398;-72
2022/07/17 03:23:00;;;;;;;14.90;14.27;;;20.30;18.70;;;;;;6219251;23;20159;-71
2022/07/17 03:25:25;;;;;;;14.37;13.67;;;20.30;18.60;;;;;;6218630;23;20158;-72
2022/07/17 03:27:51;;;;;;;15.03;14.33;;;20.40;18.60;;;;;;6219257;23;20382;-72
2022/07/17 03:30:17;;;;;;;15.30;14.67;;;20.40;18.90;;;;;;6219143;23;20301;-72
2022/07/17 03:32:43;;;;;;;15.30;14.60;;;20.40;18.80;;;;;;6219174;23;20243;-72
2022/07/17 03:35:08;;;;;;;15.87;15.07;;;20.30;18.90;;;;;;6219155;23;20159;-71
2022/07/17 03:37:37;;;;;;;15.27;14.57;;;20.20;19.00;;;;;;6245742;23;20563;-72
2022/07/17 03:40:04;;;;;;;15.27;14.47;;;20.10;19.10;;;;;;6219152;23;20197;-72
2022/07/17 03:42:29;;;;;;;15.90;15.10;;;20.20;19.00;;;;;;6219380;23;20410;-71
2022/07/17 03:44:55;;;;;;;16.47;15.50;;;20.20;19.00;;;;;;6219576;23;20393;-72
2022/07/17 03:47:21;;;;;;;16.00;15.20;;;20.30;18.80;;;;;;6219456;23;20491;-72
2022/07/17 03:49:47;;;;;;;15.03;14.33;;;20.20;19.00;;;;;;6219433;23;20496;-71
2022/07/17 03:52:13;;;;;;;15.30;14.60;;;20.10;19.20;;;;;;6244551;23;20209;-71
2022/07/17 03:54:38;;;;;;;16.00;15.30;;;20.10;19.20;;;;;;6219380;23;20244;-71
2022/07/17 03:57:04;;;;;;;15.87;15.17;;;20.10;19.30;;;;;;6219387;23;20201;-72
2022/07/17 03:59:30;;;;;;;16.13;15.37;;;20.10;19.30;;;;;;6219302;23;20603;-71
2022/07/17 04:01:56;;;;;;;14.93;14.13;;;20.00;19.90;;;;;;6219140;23;20147;-71
2022/07/17 04:04:27;;;;;;;15.20;14.50;;;20.00;19.70;;;;;;6219125;23;20228;-71
2022/07/17 04:06:53;;;;;;;15.70;15.00;;;20.00;20.30;;;;;;6218545;23;20725;-71
2022/07/17 04:09:19;;;;;;;16.77;15.50;;;19.80;20.40;;;;;;6218302;23;20378;-71
2022/07/17 04:11:48;;;;;;;15.80;15.13;;;19.70;20.70;;;;;;6245630;23;20170;-71
2022/07/17 04:14:14;;;;;;;16.27;15.03;;;19.70;20.70;;;;;;6218292;23;20159;-71
2022/07/17 04:16:40;;;;;;;16.20;15.50;;;19.80;20.80;;;;;;6245621;23;20954;-71
2022/07/17 04:19:08;;;;;;;16.60;15.87;;;19.70;21.40;;;;;;6218656;23;20174;-71
2022/07/17 04:21:34;;;;;;;17.07;16.07;;;19.80;21.30;;;;;;6217282;23;20152;-71
2022/07/17 04:24:00;;;;;;;17.07;15.97;;;19.10;23.10;;;;;;6217973;23;20476;-71
2022/07/17 04:26:26;;;;;;;15.70;15.00;;;19.00;23.10;;;;;;6245689;23;20224;-71
2022/07/17 04:29:00;;;;;;;18.47;17.30;;;19.10;23.30;;;;;;6218689;23;20405;-72
2022/07/17 04:31:26;;;;;;;18.03;17.00;;;19.00;24.10;;;;;;6218238;23;20146;-71
2022/07/17 04:33:54;;;;;;;17.00;16.10;;;18.80;24.80;;;;;;6218694;23;20379;-71
2022/07/17 04:36:19;;;;;;;18.17;17.17;;;18.90;24.70;;;;;;6218855;23;20159;-71
2022/07/17 04:38:45;;;;;;;18.63;17.30;;;18.70;25.40;;;;;;6218661;23;20913;-71
2022/07/17 04:41:11;;;;;;;16.97;16.17;;;18.50;25.90;;;;;;6218639;23;20158;-72
2022/07/17 04:43:36;;;;;;;19.13;17.97;;;18.60;26.30;;;;;;6212430;23;20161;-72
2022/07/17 04:46:02;;;;;;;18.40;17.50;;;18.40;26.70;;;;;;6218646;23;20543;-73
2022/07/17 04:48:28;;;;;;;18.83;17.73;;;18.20;27.20;;;;;;6218795;23;20160;-72
2022/07/17 04:50:53;;;;;;;18.27;17.30;;;17.90;28.00;;;;;;6218015;23;20213;-73
2022/07/17 04:53:19;;;;;;;19.23;17.97;;;17.90;28.60;;;;;;6211973;23;20595;-72
2022/07/17 04:55:45;;;;;;;18.73;17.63;;;18.00;28.10;;;;;;6196223;23;20269;-72
2022/07/17 04:58:10;;;;;;;18.80;17.67;;;18.00;27.90;;;;;;6197166;23;20199;-72
2022/07/17 05:00:36;;;;;;;17.60;16.60;;;18.10;27.90;;;;;;6196882;23;20191;-72
2022/07/17 05:03:02;;;;;;;17.87;17.00;;;18.10;27.60;;;;;;6221554;23;20253;-72
2022/07/17 05:05:28;;;;;;;18.23;17.13;;;18.20;27.70;;;;;;6197316;23;20202;-72
2022/07/17 05:07:53;;;;;;;19.10;18.20;;;18.10;27.70;;;;;;6168305;23;20200;-72
2022/07/17 05:10:19;;;;;;;17.17;16.27;;;17.90;28.10;;;;;;6183729;23;20199;-72
2022/07/17 05:12:45;;;;;;;18.00;17.00;;;18.00;27.70;;;;;;6196564;23;20199;-72
2022/07/17 05:15:14;;;;;;;18.23;17.33;;;18.10;27.50;;;;;;6197022;23;20633;-77
2022/07/17 05:17:39;;;;;;;19.67;18.37;;;18.50;26.80;;;;;;6197578;23;20223;-72
2022/07/17 05:20:06;;;;;;;17.10;16.30;;;18.30;26.80;;;;;;6160248;23;20447;-72
2022/07/17 05:22:32;;;;;;;18.00;17.10;;;18.00;27.90;;;;;;6211782;22;20196;-72
2022/07/17 05:25:01;;;;;;;20.23;18.93;;;18.10;27.80;;;;;;6197414;23;21118;-72
2022/07/17 05:27:27;;;;;;;19.73;18.60;;;18.30;27.10;;;;;;6197224;23;20422;-72
2022/07/17 05:29:53;;;;;;;18.23;17.30;;;18.10;27.10;;;;;;6196549;23;20473;-72
2022/07/17 05:32:19;;;;;;;18.50;17.40;;;17.90;27.60;;;;;;6195597;23;20465;-70
2022/07/17 05:34:44;;;;;;;18.70;17.30;;;18.00;27.50;;;;;;6193960;23;20203;-71
2022/07/17 05:37:10;;;;;;;20.40;19.30;;;18.20;26.90;;;;;;6191896;23;20547;-71
2022/07/17 05:39:36;;;;;;;16.93;16.13;;;18.50;26.20;;;;;;6187940;23;20278;-72
2022/07/17 05:42:01;;;;;;;17.57;16.67;;;18.50;26.40;;;;;;6189731;23;20202;-72
2022/07/17 05:44:27;;;;;;;18.50;17.43;;;18.30;25.90;;;;;;6185385;23;20235;-72
2022/07/17 05:46:53;;;;;;;19.10;18.17;;;18.40;26.10;;;;;;6189092;23;20303;-72
2022/07/17 05:49:22;;;;;;;18.47;17.57;;;18.50;25.70;;;;;;6188746;23;20269;-72
2022/07/17 05:51:48;;;;;;;19.20;18.30;;;18.60;25.70;;;;;;6185130;23;20248;-72
2022/07/17 05:54:17;;;;;;;18.57;17.27;;;18.60;25.80;;;;;;6188025;23;20786;-72
2022/07/17 05:56:42;;;;;;;17.73;16.73;;;18.90;25.40;;;;;;6190208;23;20718;-72
2022/07/17 05:59:08;;;;;;;18.97;17.67;;;19.10;24.80;;;;;;6199459;23;20501;-72
2022/07/17 06:01:34;;;;;;;18.97;17.97;;;19.30;24.40;;;;;;6192423;23;20272;-72
2022/07/17 06:04:06;;;;;;;17.80;16.80;;;19.50;24.10;;;;;;6186368;23;20198;-72
2022/07/17 06:06:31;;;;;;;18.20;17.17;;;19.70;23.50;;;;;;6196463;23;20196;-71
2022/07/17 06:08:57;;;;;;;18.97;17.67;;;19.80;22.40;;;;;;6192934;23;20429;-72
2022/07/17 06:11:26;;;;;;;19.47;17.97;;;19.80;23.10;;;;;;6195796;23;20931;-72
2022/07/17 06:13:52;;;;;;;17.90;17.00;;;19.80;22.80;;;;;;6191751;23;20245;-72
2022/07/17 06:16:17;;;;;;;18.63;17.70;;;19.90;22.90;;;;;;6190291;23;20736;-73
2022/07/17 06:18:43;;;;;;;18.00;16.97;;;20.00;22.80;;;;;;6190892;23;20555;-72
2022/07/17 06:21:09;;;;;;;19.30;18.30;;;20.00;22.60;;;;;;6189943;23;20195;-72
2022/07/17 06:23:35;;;;;;;18.10;17.10;;;20.20;22.20;;;;;;6186210;23;20199;-73
2022/07/17 06:26:01;;;;;;;17.93;17.07;;;20.30;21.90;;;;;;6195796;23;20624;-73
2022/07/17 06:28:27;;;;;;;18.53;17.43;;;20.30;21.70;;;;;;6188320;23;20904;-73
2022/07/17 06:31:00;;;;;;;18.30;17.03;;;20.30;21.90;;;;;;6191981;23;20530;-73
2022/07/17 06:33:26;;;;;;;18.00;17.10;;;20.40;22.00;;;;;;6188945;23;20195;-73
2022/07/17 06:35:55;;;;;;;18.30;17.23;;;20.50;22.20;;;;;;6190473;23;21034;-73
2022/07/17 06:38:21;;;;;;;18.23;17.23;;;20.40;21.20;;;;;;6187585;23;20430;-73
2022/07/17 06:40:47;;;;;;;17.47;16.67;;;20.10;21.80;;;;;;6166079;23;20779;-75
2022/07/17 06:43:13;;;;;;;17.27;16.03;;;19.90;21.60;;;;;;6180422;23;20688;-71
2022/07/17 06:45:38;;;;;;;16.20;15.60;;;20.00;20.90;;;;;;6168103;23;20525;-71
2022/07/17 06:48:14;;;;;;;17.23;16.23;;;20.00;21.50;;;;;;6194665;23;20192;-71
2022/07/17 06:50:41;;;;;;;16.80;15.90;;;20.20;21.80;;;;;;6168500;23;20203;-74
2022/07/17 06:53:09;;;;;;;17.50;16.60;;;20.40;20.40;;;;;;6204678;23;20895;-71
2022/07/17 06:55:35;;;;;;;16.23;15.47;;;20.30;21.00;;;;;;6202794;23;20423;-72
2022/07/17 06:58:01;;;;;;;16.70;16.00;;;20.40;20.90;;;;;;6148067;23;20457;-73
2022/07/17 07:00:27;;;;;;;17.90;16.80;;;20.30;20.40;;;;;;6175327;23;20509;-73
2022/07/17 07:03:18;;;;;;;;;;;;;;;;;;;;;
2022/07/17 07:05:56;;;;;;;16.43;15.57;;;20.30;20.50;;;;;;6159674;23;20199;-71
2022/07/17 07:08:23;;;;;;;17.63;16.53;;;20.10;20.90;;;;;;6190493;23;20664;-71
2022/07/17 07:10:49;;;;;;;17.30;16.60;;;20.20;20.30;;;;;;6195752;23;21053;-71
2022/07/17 07:13:20;;;;;;;16.77;16.07;;;20.20;20.00;;;;;;6157256;23;20419;-71
2022/07/17 07:15:55;;;;;;;17.30;16.50;;;20.30;20.20;;;;;;6184860;23;20202;-71
2022/07/17 07:18:24;;;;;;;17.27;16.37;;;20.60;19.50;;;;;;6193627;23;20473;-70
2022/07/17 07:20:53;;;;;;;16.43;15.73;;;20.60;19.40;;;;;;6194677;23;20502;-70
2022/07/17 07:23:19;;;;;;;16.33;15.57;;;20.60;19.60;;;;;;6193686;23;20426;-71
2022/07/17 07:25:46;;;;;;;17.97;17.03;;;20.60;19.50;;;;;;6194418;23;20430;-71
2022/07/17 07:28:12;;;;;;;17.57;16.77;;;20.90;19.50;;;;;;6193283;23;20553;-71
2022/07/17 07:30:46;;;;;;;16.50;15.80;;;21.20;18.70;;;;;;6195062;23;20449;-71
2022/07/17 07:33:12;;;;;;;17.47;16.43;;;21.20;18.20;;;;;;6184576;23;20191;-71
2022/07/17 07:35:38;;;;;;;17.30;16.40;;;21.20;18.80;;;;;;6201694;23;20931;-71
2022/07/17 07:38:04;;;;;;;16.57;15.83;;;21.30;18.30;;;;;;6197926;23;20203;-71
2022/07/17 07:40:30;;;;;;;17.43;16.43;;;21.50;17.50;;;;;;6200783;23;20280;-71
2022/07/17 07:42:57;;;;;;;16.73;15.77;;;21.50;17.50;;;;;;6198764;23;20414;-71
2022/07/17 07:45:42;;;;;;;16.00;15.40;;;21.50;17.90;;;;;;6199691;23;20414;-71
2022/07/17 07:48:08;;;;;;;16.87;16.10;;;21.60;17.40;;;;;;6196084;23;20417;-71
2022/07/17 07:50:34;;;;;;;16.57;15.60;;;21.60;17.60;;;;;;6194275;23;20914;-71
2022/07/17 07:53:00;;;;;;;16.67;15.97;;;21.80;17.50;;;;;;6196433;23;20418;-71
2022/07/17 07:55:25;;;;;;;16.20;15.60;;;21.80;18.60;;;;;;6193837;23;20509;-71
2022/07/17 07:58:12;;;;;;;16.77;15.90;;;21.80;17.20;;;;;;6196586;23;20199;-71
2022/07/17 08:00:39;;;;;;;16.70;15.90;;;21.90;17.50;;;;;;6204961;23;20198;-71
2022/07/17 08:03:06;;;;;;;16.23;15.53;;;21.80;17.20;;;;;;6186486;23;20743;-71
2022/07/17 08:05:32;;;;;;;16.00;15.20;;;22.00;17.00;;;;;;6191712;23;20472;-71
2022/07/17 08:07:59;;;;;;;15.37;14.40;;;22.20;16.50;;;;;;6190564;23;21442;-71
2022/07/17 08:10:31;;;;;;;15.50;14.90;;;22.40;16.20;;;;;;6190373;23;20429;-71
2022/07/17 08:12:57;;;;;;;16.37;15.67;;;22.40;15.90;;;;;;6187726;23;20576;-71
2022/07/17 08:15:23;;;;;;;16.03;15.23;;;22.30;16.00;;;;;;6192945;23;20469;-71
2022/07/17 08:17:51;;;;;;;15.60;14.80;;;22.20;15.90;;;;;;6189752;23;20710;-71
2022/07/17 08:20:17;;;;;;;15.93;15.33;;;22.40;16.40;;;;;;6190060;23;20426;-71
2022/07/17 08:22:44;;;;;;;15.63;15.03;;;22.50;16.10;;;;;;6189384;23;20997;-71
2022/07/17 08:25:10;;;;;;;15.27;14.67;;;22.60;15.50;;;;;;6192701;23;20429;-71
2022/07/17 08:27:51;;;;;;;;;;;;;;;;;;;;;
2022/07/17 08:30:17;;;;;;;15.00;14.40;;;23.00;14.60;;;;;;6195091;23;20497;-70
2022/07/17 08:32:43;;;;;;;15.60;14.70;;;22.90;14.60;;;;;;6195811;23;20439;-71
2022/07/17 08:35:10;;;;;;;15.60;14.90;;;22.80;15.00;;;;;;6109115;23;20428;-71
2022/07/17 08:37:46;;;;;;;15.20;14.60;;;22.70;14.90;;;;;;6198235;23;20434;-71
2022/07/17 08:40:28;;;;;;;15.73;15.03;;;23.00;14.20;;;;;;6196667;23;20426;-71
2022/07/17 08:42:55;;;;;;;15.97;15.30;;;22.90;14.20;;;;;;6195665;23;20418;-71
2022/07/17 08:45:22;;;;;;;14.90;14.40;;;22.80;14.00;;;;;;6189737;23;21039;-71
2022/07/17 08:47:50;;;;;;;16.13;15.23;;;22.90;14.10;;;;;;6189903;23;20492;-71
2022/07/17 08:50:44;;;;;;;15.13;14.33;;;23.00;14.10;;;;;;6191242;23;20860;-71
2022/07/17 08:53:10;;;;;;;15.40;14.80;;;23.30;13.30;;;;;;6194052;23;20423;-71
2022/07/17 08:55:46;;;;;;;;;;;;;;;;;;;;;
2022/07/17 08:58:24;;;;;;;15.73;14.97;;;23.50;12.90;;;;;;6159039;23;20426;-71
2022/07/17 09:00:53;;;;;;;15.37;14.67;;;23.50;12.80;;;;;;6181789;23;20975;-71
2022/07/17 09:03:18;;;;;;;15.23;14.63;;;23.50;13.00;;;;;;6162422;23;20505;-71
2022/07/17 09:05:45;;;;;;;15.30;14.60;;;23.70;12.60;;;;;;6183116;23;20442;-71
2022/07/17 09:08:38;;;;;;;15.20;14.60;;;23.60;12.80;;;;;;6187924;23;20271;-71
2022/07/17 09:11:05;;;;;;;15.70;14.33;;;23.70;12.70;;;;;;6184395;23;20965;-71
2022/07/17 09:13:31;;;;;;;15.97;15.07;;;23.70;11.90;;;;;;6193118;23;20433;-71
2022/07/17 09:15:59;;;;;;;16.00;15.23;;;23.70;13.20;;;;;;6198021;23;20419;-71
2022/07/17 09:18:25;;;;;;;16.00;15.20;;;23.90;12.40;;;;;;6193862;23;20430;-71
2022/07/17 09:20:54;;;;;;;15.30;14.70;;;23.70;12.30;;;;;;6192432;23;20418;-71
2022/07/17 09:23:21;;;;;;;16.27;15.53;;;23.90;11.90;;;;;;6190178;23;20805;-71
2022/07/17 09:25:50;;;;;;;15.80;15.20;;;23.90;12.10;;;;;;6189555;23;20415;-71
2022/07/17 09:28:17;;;;;;;14.70;14.20;;;23.90;12.30;;;;;;6165781;23;20411;-71
2022/07/17 09:30:46;;;;;;;15.00;14.40;;;24.00;11.20;;;;;;6190913;23;21020;-71
2022/07/17 09:33:19;;;;;;;41.70;38.50;;;24.00;12.60;;;;;;6187701;23;20407;-71
2022/07/17 09:35:50;;;;;;;26.03;24.60;;;24.10;12.20;;;;;;6191990;23;20419;-71
2022/07/17 09:38:35;;;;;;;28.63;27.03;;;23.90;11.80;;;;;;6189483;23;20430;-71
2022/07/17 09:41:11;;;;;;;15.47;14.87;;;23.90;12.70;;;;;;6188626;23;20817;-71
2022/07/17 09:43:50;;;;;;;15.70;15.10;;;24.50;9.60;;;;;;6182121;23;20484;-71
2022/07/17 09:46:24;;;;;;;15.77;15.00;;;24.70;8.40;;;;;;6189756;23;20426;-71
2022/07/17 09:48:54;;;;;;;17.40;16.67;;;24.70;10.30;;;;;;6188240;23;20506;-72
2022/07/17 09:51:33;;;;;;;15.77;15.20;;;24.60;10.80;;;;;;6194514;23;20789;-71
2022/07/17 09:54:05;;;;;;;15.30;14.60;;;24.50;10.10;;;;;;6190196;23;20421;-71
2022/07/17 09:56:33;;;;;;;18.17;17.37;;;24.60;10.00;;;;;;6196440;23;20423;-71
2022/07/17 09:59:21;;;;;;;16.00;15.40;;;24.80;8.90;;;;;;6193896;23;20431;-71
2022/07/17 10:01:49;;;;;;;16.50;15.60;;;25.10;8.20;;;;;;6188895;23;21525;-71
2022/07/17 10:04:16;;;;;;;15.50;14.80;;;25.20;9.10;;;;;;6194710;23;20419;-71
2022/07/17 10:06:43;;;;;;;15.60;14.90;;;25.20;8.10;;;;;;6192398;23;21139;-71
2022/07/17 10:09:09;;;;;;;18.00;17.20;;;25.30;7.70;;;;;;6185167;23;20418;-72
2022/07/17 10:11:39;;;;;;;15.53;14.80;;;25.30;7.70;;;;;;6191603;23;20939;-71
2022/07/17 10:14:10;;;;;;;14.97;14.37;;;25.40;7.50;;;;;;6195334;23;20841;-71
2022/07/17 10:16:38;;;;;;;15.77;15.07;;;26.10;6.80;;;;;;6189996;23;20752;-71
2022/07/17 10:19:18;;;;;;;15.70;15.10;;;26.20;6.60;;;;;;6172124;23;20430;-71
2022/07/17 10:21:54;;;;;;;14.30;13.70;;;25.80;6.90;;;;;;6187411;23;21083;-71
2022/07/17 10:24:21;;;;;;;15.40;14.90;;;25.50;7.10;;;;;;6182189;23;20402;-71
2022/07/17 10:26:49;;;;;;;15.20;14.60;;;26.10;5.90;;;;;;6185913;23;20901;-71
2022/07/17 10:29:32;;;;;;;16.10;15.50;;;26.50;4.10;;;;;;6191349;23;20434;-71
2022/07/17 10:31:59;;;;;;;15.30;14.70;;;26.50;5.00;;;;;;6189520;23;20809;-71
2022/07/17 10:34:45;;;;;;;15.10;14.47;;;26.60;4.60;;;;;;6189369;23;20737;-71
2022/07/17 10:37:22;;;;;;;15.10;14.40;;;27.10;4.10;;;;;;6194918;23;20911;-71
2022/07/17 10:40:07;;;;;;;15.07;14.47;;;27.00;4.20;;;;;;6194458;23;20395;-71
2022/07/17 10:42:49;;;;;;;15.53;14.83;;;27.10;4.30;;;;;;6219001;23;20421;-71
2022/07/17 10:45:23;;;;;;;16.03;15.43;;;26.80;4.40;;;;;;6191452;23;20714;-71
2022/07/17 10:48:10;;;;;;;15.60;14.70;;;27.10;4.10;;;;;;6170985;23;20647;-71
2022/07/17 10:51:18;;;;;;;14.87;14.37;;;27.00;4.30;;;;;;6180223;23;20422;-71
2022/07/17 10:53:44;;;;;;;15.90;15.20;;;26.80;6.10;;;;;;6179407;23;21053;-71
2022/07/17 10:56:12;;;;;;;15.50;15.00;;;26.20;5.40;;;;;;6185809;23;20464;-71
2022/07/17 10:58:41;;;;;;;16.13;15.53;;;25.90;5.80;;;;;;6189853;23;20341;-71
2022/07/17 11:01:10;;;;;;;16.70;16.00;;;25.90;6.00;;;;;;6190306;23;20587;-71
2022/07/17 11:03:46;;;;;;;15.20;14.60;;;26.20;5.50;;;;;;6189484;23;20414;-71
2022/07/17 11:06:30;;;;;;;15.40;14.80;;;26.50;5.40;;;;;;6190949;23;20757;-71
2022/07/17 11:09:02;;;;;;;15.93;15.30;;;26.40;5.70;;;;;;6162835;23;20523;-71
2022/07/17 11:11:41;;;;;;;14.93;14.43;;;26.70;4.30;;;;;;6189542;23;20977;-71
2022/07/17 11:14:11;;;;;;;15.23;14.70;;;27.10;4.30;;;;;;6219753;23;20422;-71
2022/07/17 11:16:59;;;;;;;15.43;14.83;;;27.00;4.00;;;;;;6196331;23;20419;-71
2022/07/17 11:19:31;;;;;;;15.33;14.83;;;27.00;3.70;;;;;;6220093;23;20900;-71
2022/07/17 11:21:59;;;;;;;16.70;15.50;;;27.10;2.80;;;;;;6174334;23;20838;-71
2022/07/17 11:24:34;;;;;;;14.47;13.90;;;27.20;4.10;;;;;;6222057;23;20414;-71
2022/07/17 11:27:00;;;;;;;15.00;14.20;;;27.20;4.10;;;;;;6193274;23;20796;-71
2022/07/17 11:29:26;;;;;;;15.47;14.47;;;27.20;3.90;;;;;;6192816;23;20445;-71
2022/07/17 11:32:05;;;;;;;14.20;13.70;;;27.00;4.70;;;;;;6193078;23;20195;-71
2022/07/17 11:34:37;;;;;;;14.13;13.20;;;26.80;4.80;;;;;;6189861;23;20436;-71
2022/07/17 11:37:05;;;;;;;13.93;13.40;;;26.30;4.60;;;;;;6215353;23;20489;-71
2022/07/17 11:39:48;;;;;;;14.00;13.40;;;26.50;4.80;;;;;;6193536;23;20414;-71
2022/07/17 11:42:18;;;;;;;14.07;13.57;;;26.70;3.80;;;;;;6190608;23;20797;-71
2022/07/17 11:44:44;;;;;;;15.13;14.53;;;26.60;4.10;;;;;;6191541;23;20418;-71
2022/07/17 11:47:11;;;;;;;14.20;13.70;;;27.00;4.00;;;;;;6190610;23;20928;-71
2022/07/17 11:50:04;;;;;;;14.90;14.20;;;26.90;3.90;;;;;;6191823;23;20421;-71
2022/07/17 11:52:48;;;;;;;14.37;13.87;;;26.80;3.30;;;;;;6180038;23;20415;-71
2022/07/17 11:55:15;;;;;;;14.70;14.20;;;27.10;2.20;;;;;;6189974;23;20411;-71
2022/07/17 11:57:47;;;;;;;13.73;13.13;;;27.50;1.70;;;;;;6192569;23;20841;-71
2022/07/17 12:00:18;;;;;;;14.90;14.30;;;27.30;1.70;;;;;;6193486;23;20422;-71
2022/07/17 12:02:44;;;;;;;15.53;14.60;;;27.10;1.50;;;;;;6192488;23;20754;-71
2022/07/17 12:05:10;;;;;;;15.50;14.90;;;27.20;1.30;;;;;;6195814;23;20787;-71
2022/07/17 12:07:47;;;;;;;15.57;14.97;;;27.20;1.40;;;;;;6191368;23;20494;-71
2022/07/17 12:10:29;;;;;;;15.93;14.80;;;27.10;1.50;;;;;;6191794;23;20429;-71
2022/07/17 12:12:59;;;;;;;14.20;13.60;;;27.20;1.90;;;;;;6175479;23;20546;-71
2022/07/17 12:15:42;;;;;;;15.20;14.60;;;27.20;2.90;;;;;;6190409;23;20411;-71
2022/07/17 12:18:25;;;;;;;15.43;14.83;;;26.90;3.30;;;;;;6190360;23;20785;-71
2022/07/17 12:20:55;;;;;;;15.47;14.63;;;26.70;3.90;;;;;;6188410;23;20446;-71
2022/07/17 12:23:38;;;;;;;16.03;15.33;;;26.60;3.90;;;;;;6192825;23;20411;-71
2022/07/17 12:26:08;;;;;;;14.53;13.90;;;26.70;2.70;;;;;;6190568;23;20450;-71
2022/07/17 12:28:35;;;;;;;15.20;14.70;;;27.00;1.30;;;;;;6191463;23;20423;-71
2022/07/17 12:31:02;;;;;;;15.10;14.60;;;26.90;3.90;;;;;;6191048;23;20418;-71
2022/07/17 12:33:31;;;;;;;14.40;13.90;;;27.10;2.60;;;;;;6191653;23;20450;-71
2022/07/17 12:35:57;;;;;;;15.20;14.60;;;27.00;2.00;;;;;;6188447;23;20417;-71
2022/07/17 12:38:22;;;;;;;14.07;13.57;;;26.80;3.80;;;;;;6191525;23;20427;-71
2022/07/17 12:40:54;;;;;;;14.90;14.30;;;26.70;2.80;;;;;;6189594;23;20195;-71
2022/07/17 12:43:20;;;;;;;15.10;14.60;;;26.50;2.80;;;;;;6140694;23;20205;-71